Seraing, Belgium
Current Conditions -  °F | °C
As of 5:50 PM on Thursday 23 Oct 2014 (Local Time) from EBLG Reporting Station
Broken Clouds Broken Clouds  
Wind Chill: 11°   Ceiling: 3300
Heat Index: 11°   Visibility: 6mi
Dew Point:   Wind: 9mph
Humidity: 88%   Direction: 190°S
Pressure: 30.21"   Gusts: NA
Location:  50.59°N, 5.52°E
Report Text: EBLG 231550Z 19008KT 9999 SCT016 BKN033 11/09 Q1023 NOSIG
Loading
Personal Weather Stations






























Interactive Weather Map
Tropical Storm Tracking
New forecast layout! Learn more

10-Day Weather Forecast

Advertisements
Track Severe Weather on mobile